Augusta, Wisconsin
Current Conditions -  °F | °C
As of 5:56 PM on Sunday 21 Dec 2014 (Local Time) from KEAU Reporting Station
Haze Haze  
Wind Chill: 29°   Ceiling: 800
Heat Index: 36°   Visibility: 6mi
Dew Point: 34°   Wind: 9mph
Humidity: 93%   Direction: 160°SSE
Pressure: 29.8"   Gusts: NA
Location:  44.68°N, 91.12°W
Report Text: KEAU 212356Z 16008KT 6SM UP BR OVC008 02/01 A2980 RMK AO2 UPB39 SLP102 P0000 60002 T00220011 10028 20006 56006
Loading
Personal Weather Stations






























Interactive Weather Map New forecast layout! Learn more

10-Day Weather Forecast

Advertisements
Track Severe Weather on mobile